sensor_id;sensor_type;location;lat;lon;timestamp;temperature;humidity
18083;DHT22;9168;51.194;6.840;2023-03-01T00:00:53;1.50;99.90
18083;DHT22;9168;51.194;6.840;2023-03-01T00:03:21;1.50;99.90
18083;DHT22;9168;51.194;6.840;2023-03-01T00:05:48;1.40;99.90
18083;DHT22;9168;51.194;6.840;2023-03-01T00:08:15;1.40;99.90
18083;DHT22;9168;51.194;6.840;2023-03-01T00:10:42;1.40;99.90
18083;DHT22;9168;51.194;6.840;2023-03-01T00:13:09;1.40;99.90
18083;DHT22;9168;51.194;6.840;2023-03-01T00:15:38;1.40;99.90
18083;DHT22;9168;51.194;6.840;2023-03-01T00:18:05;1.40;99.90
18083;DHT22;9168;51.194;6.840;2023-03-01T00:20:34;1.40;99.90
18083;DHT22;9168;51.194;6.840;2023-03-01T00:23:01;1.40;99.90
18083;DHT22;9168;51.194;6.840;2023-03-01T00:25:27;1.40;99.90
18083;DHT22;9168;51.194;6.840;2023-03-01T00:27:54;1.40;99.90
18083;DHT22;9168;51.194;6.840;2023-03-01T00:30:21;1.40;99.90
18083;DHT22;9168;51.194;6.840;2023-03-01T00:32:48;1.40;99.90
18083;DHT22;9168;51.194;6.840;2023-03-01T00:35:15;1.40;99.90
18083;DHT22;9168;51.194;6.840;2023-03-01T00:37:43;1.40;99.90
18083;DHT22;9168;51.194;6.840;2023-03-01T00:40:11;1.40;99.90
18083;DHT22;9168;51.194;6.840;2023-03-01T00:42:38;1.30;99.90
18083;DHT22;9168;51.194;6.840;2023-03-01T00:45:06;1.30;99.90
18083;DHT22;9168;51.194;6.840;2023-03-01T00:47:34;1.30;99.90
18083;DHT22;9168;51.194;6.840;2023-03-01T00:50:01;1.30;99.90
18083;DHT22;9168;51.194;6.840;2023-03-01T00:52:28;1.30;99.90
18083;DHT22;9168;51.194;6.840;2023-03-01T00:54:56;1.30;99.90
18083;DHT22;9168;51.194;6.840;2023-03-01T00:57:23;1.20;99.90
18083;DHT22;9168;51.194;6.840;2023-03-01T00:59:50;1.10;99.90
18083;DHT22;9168;51.194;6.840;2023-03-01T01:02:17;1.20;99.90
18083;DHT22;9168;51.194;6.840;2023-03-01T01:04:44;1.10;99.90
18083;DHT22;9168;51.194;6.840;2023-03-01T01:07:11;1.00;99.90
18083;DHT22;9168;51.194;6.840;2023-03-01T01:09:38;1.00;99.90
18083;DHT22;9168;51.194;6.840;2023-03-01T01:12:07;1.00;99.90
18083;DHT22;9168;51.194;6.840;2023-03-01T01:14:34;0.90;99.90
18083;DHT22;9168;51.194;6.840;2023-03-01T01:17:01;0.90;99.90
18083;DHT22;9168;51.194;6.840;2023-03-01T01:19:28;0.80;99.90
18083;DHT22;9168;51.194;6.840;2023-03-01T01:21:55;0.80;99.90
18083;DHT22;9168;51.194;6.840;2023-03-01T01:24:22;0.80;99.90
18083;DHT22;9168;51.194;6.840;2023-03-01T01:26:49;0.80;99.90
18083;DHT22;9168;51.194;6.840;2023-03-01T01:29:17;0.80;99.90
18083;DHT22;9168;51.194;6.840;2023-03-01T01:31:44;0.80;99.90
18083;DHT22;9168;51.194;6.840;2023-03-01T01:34:14;0.80;99.90
18083;DHT22;9168;51.194;6.840;2023-03-01T01:36:42;0.70;99.90
18083;DHT22;9168;51.194;6.840;2023-03-01T01:39:09;0.70;99.90
18083;DHT22;9168;51.194;6.840;2023-03-01T01:41:39;0.70;99.90
18083;DHT22;9168;51.194;6.840;2023-03-01T01:44:17;0.70;99.90
18083;DHT22;9168;51.194;6.840;2023-03-01T01:46:47;0.70;99.90
18083;DHT22;9168;51.194;6.840;2023-03-01T01:49:23;0.60;99.90
18083;DHT22;9168;51.194;6.840;2023-03-01T01:51:55;0.60;99.90
18083;DHT22;9168;51.194;6.840;2023-03-01T01:54:27;0.60;99.90
18083;DHT22;9168;51.194;6.840;2023-03-01T01:56:57;0.60;99.90
18083;DHT22;9168;51.194;6.840;2023-03-01T01:59:28;0.50;99.90
18083;DHT22;9168;51.194;6.840;2023-03-01T02:01:58;0.50;99.90
18083;DHT22;9168;51.194;6.840;2023-03-01T02:04:25;0.50;99.90
18083;DHT22;9168;51.194;6.840;2023-03-01T02:06:57;0.50;99.90
18083;DHT22;9168;51.194;6.840;2023-03-01T02:09:24;0.50;99.90
18083;DHT22;9168;51.194;6.840;2023-03-01T02:11:52;0.40;99.90
18083;DHT22;9168;51.194;6.840;2023-03-01T02:14:20;0.40;99.90
18083;DHT22;9168;51.194;6.840;2023-03-01T02:16:48;0.40;99.90
18083;DHT22;9168;51.194;6.840;2023-03-01T02:19:25;0.30;99.90
18083;DHT22;9168;51.194;6.840;2023-03-01T02:22:00;0.30;99.90
18083;DHT22;9168;51.194;6.840;2023-03-01T02:24:36;0.30;99.90
18083;DHT22;9168;51.194;6.840;2023-03-01T02:27:09;0.30;99.90
18083;DHT22;9168;51.194;6.840;2023-03-01T02:29:38;0.30;99.90
18083;DHT22;9168;51.194;6.840;2023-03-01T02:32:06;0.20;99.90
18083;DHT22;9168;51.194;6.840;2023-03-01T02:34:32;0.30;99.90
18083;DHT22;9168;51.194;6.840;2023-03-01T02:37:02;0.20;99.90
18083;DHT22;9168;51.194;6.840;2023-03-01T02:39:32;0.20;99.90
18083;DHT22;9168;51.194;6.840;2023-03-01T02:42:01;0.20;99.90
18083;DHT22;9168;51.194;6.840;2023-03-01T02:44:29;0.20;99.90
18083;DHT22;9168;51.194;6.840;2023-03-01T02:47:01;0.20;99.90
18083;DHT22;9168;51.194;6.840;2023-03-01T02:49:32;0.20;99.90
18083;DHT22;9168;51.194;6.840;2023-03-01T02:52:27;0.20;99.90
18083;DHT22;9168;51.194;6.840;2023-03-01T02:55:00;0.20;99.90
18083;DHT22;9168;51.194;6.840;2023-03-01T02:57:29;0.20;99.90
18083;DHT22;9168;51.194;6.840;2023-03-01T02:59:59;0.20;99.90
18083;DHT22;9168;51.194;6.840;2023-03-01T03:02:34;0.20;99.90
18083;DHT22;9168;51.194;6.840;2023-03-01T03:05:06;0.20;99.90
18083;DHT22;9168;51.194;6.840;2023-03-01T03:07:35;0.20;99.90
18083;DHT22;9168;51.194;6.840;2023-03-01T03:10:04;0.20;99.90
18083;DHT22;9168;51.194;6.840;2023-03-01T03:12:31;0.20;99.90
18083;DHT22;9168;51.194;6.840;2023-03-01T03:14:58;0.20;99.90
18083;DHT22;9168;51.194;6.840;2023-03-01T03:17:25;0.20;99.90
18083;DHT22;9168;51.194;6.840;2023-03-01T03:19:53;0.20;99.90
18083;DHT22;9168;51.194;6.840;2023-03-01T03:22:20;0.20;99.90
18083;DHT22;9168;51.194;6.840;2023-03-01T03:24:47;0.20;99.90
18083;DHT22;9168;51.194;6.840;2023-03-01T03:27:14;0.20;99.90
18083;DHT22;9168;51.194;6.840;2023-03-01T03:29:41;0.20;99.90
18083;DHT22;9168;51.194;6.840;2023-03-01T03:32:08;0.20;99.90
18083;DHT22;9168;51.194;6.840;2023-03-01T03:34:34;0.20;99.90
18083;DHT22;9168;51.194;6.840;2023-03-01T03:37:03;0.20;99.90
18083;DHT22;9168;51.194;6.840;2023-03-01T03:39:50;0.20;99.90
18083;DHT22;9168;51.194;6.840;2023-03-01T03:42:20;0.20;99.90
18083;DHT22;9168;51.194;6.840;2023-03-01T03:44:47;0.30;99.90
18083;DHT22;9168;51.194;6.840;2023-03-01T03:47:14;0.30;99.90
18083;DHT22;9168;51.194;6.840;2023-03-01T03:49:41;0.30;99.90
18083;DHT22;9168;51.194;6.840;2023-03-01T03:52:09;0.30;99.90
18083;DHT22;9168;51.194;6.840;2023-03-01T03:54:39;0.20;99.90
18083;DHT22;9168;51.194;6.840;2023-03-01T03:57:06;0.20;99.90
18083;DHT22;9168;51.194;6.840;2023-03-01T03:59:33;0.20;99.90
18083;DHT22;9168;51.194;6.840;2023-03-01T04:01:59;0.20;99.90
18083;DHT22;9168;51.194;6.840;2023-03-01T04:04:26;0.20;99.90
18083;DHT22;9168;51.194;6.840;2023-03-01T04:06:53;0.20;99.90
18083;DHT22;9168;51.194;6.840;2023-03-01T04:09:21;0.20;99.90
18083;DHT22;9168;51.194;6.840;2023-03-01T04:11:48;0.20;99.90
18083;DHT22;9168;51.194;6.840;2023-03-01T04:14:15;0.20;99.90
18083;DHT22;9168;51.194;6.840;2023-03-01T04:16:42;0.20;99.90
18083;DHT22;9168;51.194;6.840;2023-03-01T04:19:09;0.20;99.90
18083;DHT22;9168;51.194;6.840;2023-03-01T04:21:36;0.20;99.90
18083;DHT22;9168;51.194;6.840;2023-03-01T04:24:03;0.20;99.90
18083;DHT22;9168;51.194;6.840;2023-03-01T04:26:31;0.20;99.90
18083;DHT22;9168;51.194;6.840;2023-03-01T04:28:58;0.20;99.90
18083;DHT22;9168;51.194;6.840;2023-03-01T04:31:25;0.20;99.90
18083;DHT22;9168;51.194;6.840;2023-03-01T04:33:53;0.20;99.90
18083;DHT22;9168;51.194;6.840;2023-03-01T04:36:23;0.20;99.90
18083;DHT22;9168;51.194;6.840;2023-03-01T04:38:50;0.20;99.90
18083;DHT22;9168;51.194;6.840;2023-03-01T04:41:19;0.20;99.90
18083;DHT22;9168;51.194;6.840;2023-03-01T04:43:47;0.20;99.90
18083;DHT22;9168;51.194;6.840;2023-03-01T04:46:16;0.20;99.90
18083;DHT22;9168;51.194;6.840;2023-03-01T04:48:45;0.20;99.90
18083;DHT22;9168;51.194;6.840;2023-03-01T04:51:12;0.20;99.90
18083;DHT22;9168;51.194;6.840;2023-03-01T04:53:40;0.20;99.90
18083;DHT22;9168;51.194;6.840;2023-03-01T04:56:07;0.20;99.90
18083;DHT22;9168;51.194;6.840;2023-03-01T04:58:34;0.20;99.90
18083;DHT22;9168;51.194;6.840;2023-03-01T05:01:08;0.10;99.90
18083;DHT22;9168;51.194;6.840;2023-03-01T05:03:41;0.10;99.90
18083;DHT22;9168;51.194;6.840;2023-03-01T05:06:09;0.20;99.90
18083;DHT22;9168;51.194;6.840;2023-03-01T05:08:36;0.10;99.90
18083;DHT22;9168;51.194;6.840;2023-03-01T05:11:03;0.10;99.90
18083;DHT22;9168;51.194;6.840;2023-03-01T05:13:30;0.20;99.90
18083;DHT22;9168;51.194;6.840;2023-03-01T05:15:58;0.10;99.90
18083;DHT22;9168;51.194;6.840;2023-03-01T05:18:28;0.10;99.90
18083;DHT22;9168;51.194;6.840;2023-03-01T05:21:03;0.10;99.90
18083;DHT22;9168;51.194;6.840;2023-03-01T05:23:30;0.20;99.90
18083;DHT22;9168;51.194;6.840;2023-03-01T05:26:03;0.20;99.90
18083;DHT22;9168;51.194;6.840;2023-03-01T05:28:56;0.20;99.90
18083;DHT22;9168;51.194;6.840;2023-03-01T05:31:26;0.20;99.90
18083;DHT22;9168;51.194;6.840;2023-03-01T05:33:55;0.20;99.90
18083;DHT22;9168;51.194;6.840;2023-03-01T05:36:21;0.10;99.90
18083;DHT22;9168;51.194;6.840;2023-03-01T05:38:48;0.10;99.90
18083;DHT22;9168;51.194;6.840;2023-03-01T05:41:15;0.20;99.90
18083;DHT22;9168;51.194;6.840;2023-03-01T05:43:42;0.20;99.90
18083;DHT22;9168;51.194;6.840;2023-03-01T05:46:10;0.20;99.90
18083;DHT22;9168;51.194;6.840;2023-03-01T05:48:38;0.20;99.90
18083;DHT22;9168;51.194;6.840;2023-03-01T05:51:06;0.20;99.90
18083;DHT22;9168;51.194;6.840;2023-03-01T05:53:33;0.30;99.90
18083;DHT22;9168;51.194;6.840;2023-03-01T05:56:03;0.30;99.90
18083;DHT22;9168;51.194;6.840;2023-03-01T05:58:30;0.30;99.90
18083;DHT22;9168;51.194;6.840;2023-03-01T06:00:57;0.30;99.90
18083;DHT22;9168;51.194;6.840;2023-03-01T06:03:24;0.40;99.90
18083;DHT22;9168;51.194;6.840;2023-03-01T06:05:55;0.40;99.90
18083;DHT22;9168;51.194;6.840;2023-03-01T06:08:24;0.40;99.90
18083;DHT22;9168;51.194;6.840;2023-03-01T06:10:52;0.40;99.90
18083;DHT22;9168;51.194;6.840;2023-03-01T06:13:19;0.40;99.90
18083;DHT22;9168;51.194;6.840;2023-03-01T06:15:46;0.50;99.90
18083;DHT22;9168;51.194;6.840;2023-03-01T06:18:13;0.50;99.90
18083;DHT22;9168;51.194;6.840;2023-03-01T06:20:39;0.50;99.90
18083;DHT22;9168;51.194;6.840;2023-03-01T06:23:06;0.60;99.90
18083;DHT22;9168;51.194;6.840;2023-03-01T06:25:35;0.60;99.90
18083;DHT22;9168;51.194;6.840;2023-03-01T06:28:01;0.60;99.90
18083;DHT22;9168;51.194;6.840;2023-03-01T06:30:30;0.60;99.90
18083;DHT22;9168;51.194;6.840;2023-03-01T06:32:57;0.60;99.90
18083;DHT22;9168;51.194;6.840;2023-03-01T06:35:26;0.50;99.90
18083;DHT22;9168;51.194;6.840;2023-03-01T06:37:55;0.50;99.90
18083;DHT22;9168;51.194;6.840;2023-03-01T06:40:22;0.50;99.90
18083;DHT22;9168;51.194;6.840;2023-03-01T06:42:51;0.50;99.90
18083;DHT22;9168;51.194;6.840;2023-03-01T06:45:19;0.50;99.90
18083;DHT22;9168;51.194;6.840;2023-03-01T06:47:46;0.50;99.90
18083;DHT22;9168;51.194;6.840;2023-03-01T06:50:14;0.40;99.90
18083;DHT22;9168;51.194;6.840;2023-03-01T06:52:41;0.40;99.90
18083;DHT22;9168;51.194;6.840;2023-03-01T06:55:10;0.40;99.90
18083;DHT22;9168;51.194;6.840;2023-03-01T06:57:37;0.40;99.90
18083;DHT22;9168;51.194;6.840;2023-03-01T07:00:07;0.40;99.90
18083;DHT22;9168;51.194;6.840;2023-03-01T07:02:34;0.40;99.90
18083;DHT22;9168;51.194;6.840;2023-03-01T07:05:01;0.40;99.90
18083;DHT22;9168;51.194;6.840;2023-03-01T07:07:28;0.40;99.90
18083;DHT22;9168;51.194;6.840;2023-03-01T07:09:55;0.40;99.90
18083;DHT22;9168;51.194;6.840;2023-03-01T07:12:21;0.50;99.90
18083;DHT22;9168;51.194;6.840;2023-03-01T07:14:48;0.50;99.90
18083;DHT22;9168;51.194;6.840;2023-03-01T07:17:16;0.50;99.90
18083;DHT22;9168;51.194;6.840;2023-03-01T07:19:44;0.50;99.90
18083;DHT22;9168;51.194;6.840;2023-03-01T07:22:11;0.50;99.90
18083;DHT22;9168;51.194;6.840;2023-03-01T07:24:38;0.50;99.90
18083;DHT22;9168;51.194;6.840;2023-03-01T07:27:04;0.60;99.90
18083;DHT22;9168;51.194;6.840;2023-03-01T07:29:31;0.60;99.90
18083;DHT22;9168;51.194;6.840;2023-03-01T07:31:58;0.70;99.90
18083;DHT22;9168;51.194;6.840;2023-03-01T07:34:26;0.80;99.90
18083;DHT22;9168;51.194;6.840;2023-03-01T07:36:53;0.90;99.90
18083;DHT22;9168;51.194;6.840;2023-03-01T07:39:21;1.00;99.90
18083;DHT22;9168;51.194;6.840;2023-03-01T07:41:48;1.10;99.90
18083;DHT22;9168;51.194;6.840;2023-03-01T07:44:15;1.20;99.90
18083;DHT22;9168;51.194;6.840;2023-03-01T07:46:42;1.30;99.90
18083;DHT22;9168;51.194;6.840;2023-03-01T07:49:10;1.40;99.90
18083;DHT22;9168;51.194;6.840;2023-03-01T07:51:40;1.40;99.90
18083;DHT22;9168;51.194;6.840;2023-03-01T07:54:07;1.40;99.90
18083;DHT22;9168;51.194;6.840;2023-03-01T07:56:34;1.50;99.90
18083;DHT22;9168;51.194;6.840;2023-03-01T07:59:01;1.50;99.90
18083;DHT22;9168;51.194;6.840;2023-03-01T08:01:28;1.50;99.90
18083;DHT22;9168;51.194;6.840;2023-03-01T08:03:55;1.60;99.90
18083;DHT22;9168;51.194;6.840;2023-03-01T08:06:28;1.60;99.90
18083;DHT22;9168;51.194;6.840;2023-03-01T08:08:57;1.80;99.90
18083;DHT22;9168;51.194;6.840;2023-03-01T08:11:24;1.80;99.90
18083;DHT22;9168;51.194;6.840;2023-03-01T08:13:54;1.90;99.90
18083;DHT22;9168;51.194;6.840;2023-03-01T08:16:21;2.00;99.90
18083;DHT22;9168;51.194;6.840;2023-03-01T08:18:48;2.10;99.90
18083;DHT22;9168;51.194;6.840;2023-03-01T08:21:17;2.20;99.90
18083;DHT22;9168;51.194;6.840;2023-03-01T08:23:44;2.20;99.90
18083;DHT22;9168;51.194;6.840;2023-03-01T08:26:14;2.40;99.90
18083;DHT22;9168;51.194;6.840;2023-03-01T08:28:42;2.40;99.90
18083;DHT22;9168;51.194;6.840;2023-03-01T08:31:17;2.50;99.90
18083;DHT22;9168;51.194;6.840;2023-03-01T08:33:44;2.70;99.90
18083;DHT22;9168;51.194;6.840;2023-03-01T08:36:16;2.70;99.90
18083;DHT22;9168;51.194;6.840;2023-03-01T08:38:43;2.80;99.90
18083;DHT22;9168;51.194;6.840;2023-03-01T08:41:12;2.90;99.90
18083;DHT22;9168;51.194;6.840;2023-03-01T08:43:51;2.90;99.90
18083;DHT22;9168;51.194;6.840;2023-03-01T08:46:26;3.00;99.90
18083;DHT22;9168;51.194;6.840;2023-03-01T08:49:03;3.00;99.90
18083;DHT22;9168;51.194;6.840;2023-03-01T08:51:34;3.10;99.90
18083;DHT22;9168;51.194;6.840;2023-03-01T08:54:03;3.20;99.90
18083;DHT22;9168;51.194;6.840;2023-03-01T08:56:32;3.30;99.90
18083;DHT22;9168;51.194;6.840;2023-03-01T08:58:59;3.40;99.90
18083;DHT22;9168;51.194;6.840;2023-03-01T09:01:26;3.40;99.90
18083;DHT22;9168;51.194;6.840;2023-03-01T09:03:53;3.50;99.90
18083;DHT22;9168;51.194;6.840;2023-03-01T09:06:20;3.50;99.90
18083;DHT22;9168;51.194;6.840;2023-03-01T09:08:49;3.60;99.90
18083;DHT22;9168;51.194;6.840;2023-03-01T09:11:18;3.60;99.90
18083;DHT22;9168;51.194;6.840;2023-03-01T09:13:48;3.60;99.90
18083;DHT22;9168;51.194;6.840;2023-03-01T09:16:19;3.70;99.90
18083;DHT22;9168;51.194;6.840;2023-03-01T09:18:49;3.70;99.90
18083;DHT22;9168;51.194;6.840;2023-03-01T09:21:17;3.80;99.90
18083;DHT22;9168;51.194;6.840;2023-03-01T09:23:57;3.90;99.90
18083;DHT22;9168;51.194;6.840;2023-03-01T09:26:27;3.90;99.90
18083;DHT22;9168;51.194;6.840;2023-03-01T09:29:04;4.00;99.90
18083;DHT22;9168;51.194;6.840;2023-03-01T09:31:31;4.10;99.90
18083;DHT22;9168;51.194;6.840;2023-03-01T09:33:58;4.10;99.90
18083;DHT22;9168;51.194;6.840;2023-03-01T09:36:24;4.10;99.90
18083;DHT22;9168;51.194;6.840;2023-03-01T09:38:52;4.20;99.90
18083;DHT22;9168;51.194;6.840;2023-03-01T09:41:31;4.30;99.90
18083;DHT22;9168;51.194;6.840;2023-03-01T09:44:12;4.40;99.90
18083;DHT22;9168;51.194;6.840;2023-03-01T09:46:43;4.50;99.90
18083;DHT22;9168;51.194;6.840;2023-03-01T09:49:14;4.60;99.90
18083;DHT22;9168;51.194;6.840;2023-03-01T09:51:44;4.70;99.90
18083;DHT22;9168;51.194;6.840;2023-03-01T09:54:14;4.80;99.90
18083;DHT22;9168;51.194;6.840;2023-03-01T09:56:45;4.90;99.90
18083;DHT22;9168;51.194;6.840;2023-03-01T09:59:21;4.90;99.90
18083;DHT22;9168;51.194;6.840;2023-03-01T10:01:55;5.00;99.90
18083;DHT22;9168;51.194;6.840;2023-03-01T10:04:37;5.00;99.90
18083;DHT22;9168;51.194;6.840;2023-03-01T10:07:17;5.10;99.90
18083;DHT22;9168;51.194;6.840;2023-03-01T10:09:47;5.20;99.90
18083;DHT22;9168;51.194;6.840;2023-03-01T10:12:17;5.10;99.90
18083;DHT22;9168;51.194;6.840;2023-03-01T10:14:51;5.20;99.90
18083;DHT22;9168;51.194;6.840;2023-03-01T10:17:26;5.40;99.90
18083;DHT22;9168;51.194;6.840;2023-03-01T10:19:55;5.60;99.90
18083;DHT22;9168;51.194;6.840;2023-03-01T10:22:27;5.60;99.90
18083;DHT22;9168;51.194;6.840;2023-03-01T10:24:56;5.70;99.90
18083;DHT22;9168;51.194;6.840;2023-03-01T10:27:25;5.80;99.90
18083;DHT22;9168;51.194;6.840;2023-03-01T10:29:59;5.80;99.90
18083;DHT22;9168;51.194;6.840;2023-03-01T10:32:29;5.90;99.90
18083;DHT22;9168;51.194;6.840;2023-03-01T10:34:56;6.00;99.90
18083;DHT22;9168;51.194;6.840;2023-03-01T10:37:23;6.10;99.90
18083;DHT22;9168;51.194;6.840;2023-03-01T10:40:01;6.20;99.90
18083;DHT22;9168;51.194;6.840;2023-03-01T10:42:33;6.40;99.90
18083;DHT22;9168;51.194;6.840;2023-03-01T10:45:19;6.60;99.90
18083;DHT22;9168;51.194;6.840;2023-03-01T10:48:04;7.00;99.90
18083;DHT22;9168;51.194;6.840;2023-03-01T10:50:31;7.30;99.90
18083;DHT22;9168;51.194;6.840;2023-03-01T10:52:59;7.70;99.90
18083;DHT22;9168;51.194;6.840;2023-03-01T10:55:31;8.30;99.90
18083;DHT22;9168;51.194;6.840;2023-03-01T10:58:08;9.20;99.90
18083;DHT22;9168;51.194;6.840;2023-03-01T11:00:47;10.20;99.90
18083;DHT22;9168;51.194;6.840;2023-03-01T11:03:18;11.20;99.90
18083;DHT22;9168;51.194;6.840;2023-03-01T11:06:03;12.10;99.90
18083;DHT22;9168;51.194;6.840;2023-03-01T11:08:33;13.20;99.90
18083;DHT22;9168;51.194;6.840;2023-03-01T11:11:18;14.10;98.40
18083;DHT22;9168;51.194;6.840;2023-03-01T11:13:56;14.70;96.00
18083;DHT22;9168;51.194;6.840;2023-03-01T11:16:28;15.20;94.20
18083;DHT22;9168;51.194;6.840;2023-03-01T11:18:57;15.80;92.70
18083;DHT22;9168;51.194;6.840;2023-03-01T11:21:26;16.10;91.30
18083;DHT22;9168;51.194;6.840;2023-03-01T11:23:54;16.30;90.20
18083;DHT22;9168;51.194;6.840;2023-03-01T11:26:21;16.80;87.30
18083;DHT22;9168;51.194;6.840;2023-03-01T11:28:53;16.90;86.00
18083;DHT22;9168;51.194;6.840;2023-03-01T11:31:22;16.80;85.30
18083;DHT22;9168;51.194;6.840;2023-03-01T11:33:56;17.10;85.40
18083;DHT22;9168;51.194;6.840;2023-03-01T11:36:32;17.40;82.10
18083;DHT22;9168;51.194;6.840;2023-03-01T11:39:11;17.60;81.50
18083;DHT22;9168;51.194;6.840;2023-03-01T11:41:42;17.90;80.60
18083;DHT22;9168;51.194;6.840;2023-03-01T11:44:14;18.00;78.80
18083;DHT22;9168;51.194;6.840;2023-03-01T11:47:00;18.30;77.00
18083;DHT22;9168;51.194;6.840;2023-03-01T11:50:04;18.40;76.70
18083;DHT22;9168;51.194;6.840;2023-03-01T11:52:41;18.80;75.90
18083;DHT22;9168;51.194;6.840;2023-03-01T11:55:30;18.60;74.80
18083;DHT22;9168;51.194;6.840;2023-03-01T11:58:13;18.80;74.50
18083;DHT22;9168;51.194;6.840;2023-03-01T12:04:20;18.90;71.70
18083;DHT22;9168;51.194;6.840;2023-03-01T12:06:57;19.00;70.10
18083;DHT22;9168;51.194;6.840;2023-03-01T12:09:34;19.40;70.10
18083;DHT22;9168;51.194;6.840;2023-03-01T12:12:24;19.70;70.10
18083;DHT22;9168;51.194;6.840;2023-03-01T12:15:06;19.90;69.70
18083;DHT22;9168;51.194;6.840;2023-03-01T12:17:55;19.90;68.80
18083;DHT22;9168;51.194;6.840;2023-03-01T12:20:29;20.10;68.30
18083;DHT22;9168;51.194;6.840;2023-03-01T12:23:33;19.90;68.40
18083;DHT22;9168;51.194;6.840;2023-03-01T12:26:11;20.00;68.30
18083;DHT22;9168;51.194;6.840;2023-03-01T12:28:59;20.20;67.70
18083;DHT22;9168;51.194;6.840;2023-03-01T12:34:45;20.70;65.90
18083;DHT22;9168;51.194;6.840;2023-03-01T12:37:23;20.80;65.30
18083;DHT22;9168;51.194;6.840;2023-03-01T12:40:17;20.60;65.80
18083;DHT22;9168;51.194;6.840;2023-03-01T12:42:56;20.50;64.10
18083;DHT22;9168;51.194;6.840;2023-03-01T12:45:40;20.50;63.90
18083;DHT22;9168;51.194;6.840;2023-03-01T12:48:24;20.20;63.40
18083;DHT22;9168;51.194;6.840;2023-03-01T12:50:59;19.60;64.20
18083;DHT22;9168;51.194;6.840;2023-03-01T12:53:29;18.90;65.60
18083;DHT22;9168;51.194;6.840;2023-03-01T12:56:01;18.10;65.50
18083;DHT22;9168;51.194;6.840;2023-03-01T12:58:32;17.80;66.90
18083;DHT22;9168;51.194;6.840;2023-03-01T13:01:13;17.20;68.30
18083;DHT22;9168;51.194;6.840;2023-03-01T13:07:29;16.40;69.90
18083;DHT22;9168;51.194;6.840;2023-03-01T13:10:15;15.80;72.60
18083;DHT22;9168;51.194;6.840;2023-03-01T13:13:01;15.50;72.80
18083;DHT22;9168;51.194;6.840;2023-03-01T13:15:36;15.00;74.30
18083;DHT22;9168;51.194;6.840;2023-03-01T13:18:31;14.80;75.90
18083;DHT22;9168;51.194;6.840;2023-03-01T13:21:03;14.70;76.40
18083;DHT22;9168;51.194;6.840;2023-03-01T13:23:34;14.70;77.10
18083;DHT22;9168;51.194;6.840;2023-03-01T13:26:14;14.60;76.60
18083;DHT22;9168;51.194;6.840;2023-03-01T13:28:57;14.60;76.30
18083;DHT22;9168;51.194;6.840;2023-03-01T13:31:59;14.50;75.20
18083;DHT22;9168;51.194;6.840;2023-03-01T13:34:43;14.50;76.10
18083;DHT22;9168;51.194;6.840;2023-03-01T13:37:19;14.40;75.70
18083;DHT22;9168;51.194;6.840;2023-03-01T13:39:46;14.10;76.10
18083;DHT22;9168;51.194;6.840;2023-03-01T13:42:41;14.00;77.70
18083;DHT22;9168;51.194;6.840;2023-03-01T13:45:34;14.00;77.20
18083;DHT22;9168;51.194;6.840;2023-03-01T13:48:08;14.00;76.30
18083;DHT22;9168;51.194;6.840;2023-03-01T13:50:43;13.80;77.30
18083;DHT22;9168;51.194;6.840;2023-03-01T13:53:16;13.90;77.00
18083;DHT22;9168;51.194;6.840;2023-03-01T13:55:45;13.90;77.20
18083;DHT22;9168;51.194;6.840;2023-03-01T13:58:22;13.80;76.80
18083;DHT22;9168;51.194;6.840;2023-03-01T14:00:57;13.80;76.80
18083;DHT22;9168;51.194;6.840;2023-03-01T14:03:24;13.80;78.00
18083;DHT22;9168;51.194;6.840;2023-03-01T14:06:04;14.00;77.90
18083;DHT22;9168;51.194;6.840;2023-03-01T14:08:36;14.10;77.10
18083;DHT22;9168;51.194;6.840;2023-03-01T14:17:26;14.00;77.80
18083;DHT22;9168;51.194;6.840;2023-03-01T14:20:00;13.90;79.00
18083;DHT22;9168;51.194;6.840;2023-03-01T14:22:29;14.00;78.20
18083;DHT22;9168;51.194;6.840;2023-03-01T14:24:58;14.10;78.20
18083;DHT22;9168;51.194;6.840;2023-03-01T14:27:29;14.20;79.20
18083;DHT22;9168;51.194;6.840;2023-03-01T14:29:58;14.40;77.00
18083;DHT22;9168;51.194;6.840;2023-03-01T14:32:28;14.40;76.70
18083;DHT22;9168;51.194;6.840;2023-03-01T14:34:56;14.10;77.10
18083;DHT22;9168;51.194;6.840;2023-03-01T14:37:26;14.10;77.80
18083;DHT22;9168;51.194;6.840;2023-03-01T14:39:56;14.10;78.10
18083;DHT22;9168;51.194;6.840;2023-03-01T14:42:26;14.10;78.30
18083;DHT22;9168;51.194;6.840;2023-03-01T14:44:55;14.10;77.60
18083;DHT22;9168;51.194;6.840;2023-03-01T14:47:28;14.50;76.20
18083;DHT22;9168;51.194;6.840;2023-03-01T14:49:59;14.50;75.50
18083;DHT22;9168;51.194;6.840;2023-03-01T14:52:32;14.60;77.10
18083;DHT22;9168;51.194;6.840;2023-03-01T14:55:03;14.80;77.00
18083;DHT22;9168;51.194;6.840;2023-03-01T14:57:30;14.80;76.10
18083;DHT22;9168;51.194;6.840;2023-03-01T14:59:59;14.90;76.20
18083;DHT22;9168;51.194;6.840;2023-03-01T15:02:32;15.10;74.70
18083;DHT22;9168;51.194;6.840;2023-03-01T15:05:01;15.00;74.60
18083;DHT22;9168;51.194;6.840;2023-03-01T15:07:31;14.70;75.30
18083;DHT22;9168;51.194;6.840;2023-03-01T15:09:59;14.80;76.50
18083;DHT22;9168;51.194;6.840;2023-03-01T15:12:37;14.80;75.80
18083;DHT22;9168;51.194;6.840;2023-03-01T15:15:32;14.80;76.40
18083;DHT22;9168;51.194;6.840;2023-03-01T15:18:03;14.90;75.50
18083;DHT22;9168;51.194;6.840;2023-03-01T15:20:31;14.70;75.60
18083;DHT22;9168;51.194;6.840;2023-03-01T15:23:01;14.80;75.60
18083;DHT22;9168;51.194;6.840;2023-03-01T15:25:30;15.00;74.60
18083;DHT22;9168;51.194;6.840;2023-03-01T15:27:59;15.00;74.00
18083;DHT22;9168;51.194;6.840;2023-03-01T15:30:29;15.00;73.90
18083;DHT22;9168;51.194;6.840;2023-03-01T15:33:31;14.90;74.00
18083;DHT22;9168;51.194;6.840;2023-03-01T15:36:00;14.90;74.30
18083;DHT22;9168;51.194;6.840;2023-03-01T15:38:34;15.00;72.70
18083;DHT22;9168;51.194;6.840;2023-03-01T15:41:05;15.00;73.60
18083;DHT22;9168;51.194;6.840;2023-03-01T15:43:47;14.90;71.40
18083;DHT22;9168;51.194;6.840;2023-03-01T15:46:24;14.90;72.60
18083;DHT22;9168;51.194;6.840;2023-03-01T15:48:54;14.80;72.00
18083;DHT22;9168;51.194;6.840;2023-03-01T15:51:28;14.30;73.00
18083;DHT22;9168;51.194;6.840;2023-03-01T15:53:58;13.80;73.60
18083;DHT22;9168;51.194;6.840;2023-03-01T15:56:25;13.40;75.40
18083;DHT22;9168;51.194;6.840;2023-03-01T15:58:52;12.90;76.30
18083;DHT22;9168;51.194;6.840;2023-03-01T16:01:19;12.40;77.80
18083;DHT22;9168;51.194;6.840;2023-03-01T16:03:48;11.90;80.60
18083;DHT22;9168;51.194;6.840;2023-03-01T16:06:16;11.50;80.30
18083;DHT22;9168;51.194;6.840;2023-03-01T16:08:43;11.10;83.30
18083;DHT22;9168;51.194;6.840;2023-03-01T16:11:14;10.70;83.80
18083;DHT22;9168;51.194;6.840;2023-03-01T16:13:42;10.50;84.10
18083;DHT22;9168;51.194;6.840;2023-03-01T16:16:11;10.30;84.20
18083;DHT22;9168;51.194;6.840;2023-03-01T16:18:41;10.10;86.70
18083;DHT22;9168;51.194;6.840;2023-03-01T16:21:13;9.90;86.80
18083;DHT22;9168;51.194;6.840;2023-03-01T16:23:42;9.70;87.20
18083;DHT22;9168;51.194;6.840;2023-03-01T16:26:10;9.50;88.80
18083;DHT22;9168;51.194;6.840;2023-03-01T16:28:39;9.30;88.70
18083;DHT22;9168;51.194;6.840;2023-03-01T16:31:05;9.20;89.00
18083;DHT22;9168;51.194;6.840;2023-03-01T16:33:32;9.10;90.00
18083;DHT22;9168;51.194;6.840;2023-03-01T16:35:59;9.10;88.10
18083;DHT22;9168;51.194;6.840;2023-03-01T16:38:28;8.90;89.30